createdAt,value
2018-11-20T00:04:21.366Z,17.50
2018-11-20T00:10:06.539Z,17.93
2018-11-20T00:15:34.455Z,15.47
2018-11-20T00:21:19.677Z,19.60
2018-11-20T00:27:05.139Z,18.60
2018-11-20T00:32:53.189Z,18.60
2018-11-20T00:38:38.638Z,15.40
2018-11-20T00:44:23.734Z,16.13
2018-11-20T00:50:09.514Z,16.60
2018-11-20T00:55:57.346Z,18.73
2018-11-20T01:01:39.697Z,11.73
2018-11-20T01:07:28.560Z,20.13
2018-11-20T01:13:09.668Z,15.33
2018-11-20T01:18:56.521Z,21.13
2018-11-20T01:24:41.628Z,14.87
2018-11-20T01:30:33.281Z,16.33
2018-11-20T01:36:24.982Z,14.70
2018-11-20T01:42:10.832Z,21.57
2018-11-20T01:47:56.202Z,19.27
2018-11-20T01:53:48.180Z,20.57
2018-11-20T01:59:33.715Z,20.73
2018-11-20T02:05:20.223Z,12.97
2018-11-20T02:11:03.805Z,15.57
2018-11-20T02:16:49.374Z,19.57
2018-11-20T02:22:35.002Z,17.83
2018-11-20T02:28:23.921Z,10.13
2018-11-20T02:34:09.839Z,20.53
2018-11-20T02:40:00.802Z,16.93
2018-11-20T02:45:40.142Z,15.77
2018-11-20T02:51:26.078Z,16.33
2018-11-20T03:02:45.479Z,16.83
2018-11-20T03:08:32.343Z,17.23
2018-11-20T03:14:18.169Z,10.00
2018-11-20T03:20:09.978Z,19.60
2018-11-20T03:25:55.500Z,16.87
2018-11-20T03:31:38.068Z,20.13
2018-11-20T03:37:23.136Z,14.90
2018-11-20T03:43:08.556Z,14.60
2018-11-20T03:48:56.672Z,12.53
2018-11-20T03:54:42.252Z,16.20
2018-11-20T04:00:27.417Z,16.83
2018-11-20T04:06:12.811Z,19.50
2018-11-20T04:11:58.358Z,17.77
2018-11-20T04:17:37.442Z,15.63
2018-11-20T04:23:14.710Z,18.40
2018-11-20T04:29:00.531Z,21.30
2018-11-20T04:34:49.438Z,19.73
2018-11-20T04:40:35.217Z,12.53
2018-11-20T04:52:07.443Z,15.77
2018-11-20T04:57:53.333Z,12.37
2018-11-20T05:03:44.911Z,13.93
2018-11-20T05:09:30.216Z,16.43
2018-11-20T05:15:04.882Z,13.03
2018-11-20T05:26:52.790Z,11.17
2018-11-20T05:32:38.659Z,13.03
2018-11-20T05:38:26.547Z,21.03
2018-11-20T05:44:12.116Z,19.03
2018-11-20T05:50:00.565Z,18.27
2018-11-20T06:07:48.837Z,19.83
2018-11-20T06:13:34.042Z,20.67
2018-11-20T06:19:22.870Z,11.17
2018-11-20T06:25:08.328Z,17.40
2018-11-20T06:30:53.923Z,24.60
2018-11-20T06:36:39.254Z,15.63
2018-11-20T06:42:30.238Z,10.73
2018-11-20T06:48:15.607Z,18.50
2018-11-20T06:54:01.176Z,29.93
2018-11-20T06:59:47.184Z,12.53
2018-11-20T07:05:28.454Z,19.90
2018-11-20T07:11:17.056Z,16.87
2018-11-20T07:17:02.944Z,16.50
2018-11-20T07:22:49.974Z,13.13
2018-11-20T07:28:36.672Z,14.07
2018-11-20T07:34:16.890Z,13.67
2018-11-20T07:39:50.231Z,15.03
2018-11-20T07:45:37.159Z,13.47
2018-11-20T07:51:23.118Z,11.90
2018-11-20T07:57:18.140Z,9.60
2018-11-20T08:03:09.313Z,12.60
2018-11-20T08:08:47.500Z,10.40
2018-11-20T08:14:39.153Z,12.23
2018-11-20T08:20:24.249Z,16.93
2018-11-20T08:26:00.753Z,13.77
2018-11-20T08:31:46.474Z,12.57
2018-11-20T08:37:32.420Z,11.20
2018-11-20T08:43:17.752Z,12.43
2018-11-20T08:49:06.405Z,11.17
2018-11-20T08:54:52.064Z,11.63
2018-11-20T09:00:37.350Z,12.83
2018-11-20T09:06:22.717Z,17.37
2018-11-20T09:12:08.284Z,15.77
2018-11-20T09:17:54.046Z,18.77
2018-11-20T09:23:39.797Z,12.23
2018-11-20T09:29:24.855Z,16.53
2018-11-20T09:35:10.228Z,9.07
2018-11-20T09:40:51.343Z,15.47
2018-11-20T09:46:36.746Z,13.27
2018-11-20T09:52:13.921Z,6.17
2018-11-20T09:58:00.810Z,10.27
2018-11-20T10:03:46.016Z,9.30
2018-11-20T10:09:31.495Z,9.33
2018-11-20T10:15:20.006Z,11.57
2018-11-20T10:21:08.274Z,8.97
2018-11-20T10:26:53.990Z,11.73
2018-11-20T10:32:43.368Z,10.93
2018-11-20T10:38:29.059Z,12.50
2018-11-20T10:44:21.194Z,8.97
2018-11-20T10:50:06.610Z,10.00
2018-11-20T10:55:51.685Z,8.53
2018-11-20T11:01:40.764Z,11.77
2018-11-20T11:07:26.128Z,8.10
2018-11-20T11:13:11.524Z,9.67
2018-11-20T11:18:57.347Z,7.30
2018-11-20T11:24:43.239Z,9.47
2018-11-20T11:30:16.140Z,8.53
2018-11-20T11:36:01.979Z,6.47
2018-11-20T11:41:28.122Z,8.40
2018-11-20T11:47:13.207Z,7.80
2018-11-20T11:52:58.533Z,9.90
2018-11-20T11:58:44.441Z,10.60
2018-11-20T12:10:39.549Z,17.30
2018-11-20T12:16:25.523Z,14.30
2018-11-20T12:22:11.015Z,9.03
2018-11-20T12:27:56.578Z,8.53
2018-11-20T12:33:42.291Z,7.80
2018-11-20T12:39:34.129Z,8.20
2018-11-20T12:45:15.593Z,8.53
2018-11-20T12:50:59.797Z,8.30
2018-11-20T12:56:45.692Z,7.40
2018-11-20T13:02:31.381Z,8.13
2018-11-20T13:08:23.064Z,7.83
2018-11-20T13:14:20.432Z,11.30
2018-11-20T13:20:05.994Z,7.43
2018-11-20T13:25:52.847Z,7.97
2018-11-20T13:31:38.260Z,6.70
2018-11-20T13:38:05.560Z,8.40
2018-11-20T13:43:51.924Z,6.90
2018-11-20T13:49:35.824Z,7.17
2018-11-20T13:55:12.369Z,9.87
2018-11-20T14:00:58.396Z,9.47
2018-11-20T14:06:39.704Z,8.53
2018-11-20T14:12:25.082Z,8.13
2018-11-20T14:24:21.334Z,7.43
2018-11-20T14:29:54.300Z,7.50
2018-11-20T14:35:40.361Z,9.13
2018-11-20T14:41:32.055Z,12.00
2018-11-20T14:47:17.767Z,10.07
2018-11-20T14:53:03.302Z,6.90
2018-11-20T14:58:48.969Z,7.47
2018-11-20T15:04:34.038Z,9.87
2018-11-20T15:10:17.376Z,8.13
2018-11-20T15:16:02.064Z,7.33
2018-11-20T15:21:48.007Z,10.03
2018-11-20T15:27:33.842Z,9.13
2018-11-20T15:33:19.133Z,11.73
2018-11-20T15:39:14.616Z,11.47
2018-11-20T15:45:00.080Z,9.83
2018-11-20T15:50:45.788Z,8.77
2018-11-20T16:02:33.462Z,11.87
2018-11-20T16:08:19.055Z,8.27
2018-11-20T16:14:04.668Z,9.70
2018-11-20T16:19:56.511Z,9.17
2018-11-20T16:25:44.958Z,11.13
2018-11-20T16:31:33.125Z,10.00
2018-11-20T16:37:24.413Z,11.70
2018-11-20T16:43:10.578Z,16.30
2018-11-20T16:48:55.765Z,16.17
2018-11-20T16:54:41.109Z,14.07
2018-11-20T17:00:26.349Z,12.97
2018-11-20T17:06:12.321Z,12.50
2018-11-20T17:12:01.183Z,13.77
2018-11-20T17:17:49.741Z,13.47
2018-11-20T17:23:35.355Z,12.17
2018-11-20T17:29:21.946Z,18.90
2018-11-20T17:35:07.634Z,13.23
2018-11-20T17:40:59.436Z,15.00
2018-11-20T17:46:45.260Z,15.07
2018-11-20T17:58:16.854Z,15.03
2018-11-20T18:04:08.401Z,15.47
2018-11-20T18:20:31.345Z,11.77
2018-11-20T18:26:25.968Z,15.10
2018-11-20T18:32:10.860Z,12.27
2018-11-20T18:38:02.291Z,12.70
2018-11-20T18:43:47.369Z,12.07
2018-11-20T18:49:36.312Z,15.57
2018-11-20T19:07:14.158Z,22.50
2018-11-20T19:12:59.602Z,14.07
2018-11-20T19:18:46.184Z,22.20
2018-11-20T19:24:31.390Z,19.73
2018-11-20T19:30:20.229Z,26.23
2018-11-20T19:41:22.190Z,20.43
2018-11-20T19:47:07.378Z,16.40
2018-11-20T19:52:54.318Z,13.37
2018-11-20T19:58:40.166Z,20.80
2018-11-20T20:04:24.466Z,17.50
2018-11-20T20:10:17.527Z,16.97
2018-11-20T20:15:36.792Z,23.73
2018-11-20T20:21:23.268Z,20.07
2018-11-20T20:27:11.718Z,18.97
2018-11-20T20:32:56.934Z,19.20
2018-11-20T20:38:45.786Z,16.47
2018-11-20T20:44:31.514Z,23.60
2018-11-20T20:50:13.500Z,19.47
2018-11-20T20:55:58.754Z,14.60
2018-11-20T21:01:51.497Z,14.30
2018-11-20T21:07:39.794Z,13.57
2018-11-20T21:13:28.094Z,20.77
2018-11-20T21:19:19.957Z,19.90
2018-11-20T21:25:06.509Z,23.17
2018-11-20T21:30:51.607Z,20.13
2018-11-20T21:36:37.444Z,16.83
2018-11-20T21:42:04.215Z,16.07
2018-11-20T21:47:44.980Z,15.63
2018-11-20T21:53:30.270Z,17.50
2018-11-20T21:59:15.849Z,26.27
2018-11-20T22:05:01.254Z,28.33
2018-11-20T22:10:49.586Z,31.57
2018-11-20T22:16:35.409Z,22.07
2018-11-20T22:22:21.017Z,23.77
2018-11-20T22:28:07.034Z,26.77
2018-11-20T22:33:52.389Z,24.17
2018-11-20T22:39:40.875Z,21.53
2018-11-20T22:45:26.765Z,27.83
2018-11-20T22:51:19.318Z,25.03
2018-11-20T22:57:05.295Z,26.67
2018-11-20T23:02:51.191Z,23.87
2018-11-20T23:08:17.724Z,20.83
2018-11-20T23:13:44.455Z,24.20
2018-11-20T23:19:11.446Z,21.50
2018-11-20T23:24:37.656Z,19.83
2018-11-20T23:30:04.366Z,21.40
2018-11-20T23:35:30.475Z,23.40
2018-11-20T23:40:57.020Z,19.80
2018-11-20T23:46:24.061Z,24.23
2018-11-20T23:51:50.123Z,19.40
2018-11-20T23:57:16.458Z,21.27
